Mascara Metmore, Algeria
Current Conditions -  °F | °C
As of 6:00 PM on Thursday 30 Oct 2014 (Local Time) from DAOV Reporting Station
Few Clouds Few Clouds  
Wind Chill: 73°   Ceiling: Unl
Heat Index: 73°   Visibility: 6mi
Dew Point: 34°   Wind: 13mph
Humidity: 23%   Direction: 40°NE
Pressure: 30.15"   Gusts: NA
Location:  35.6°N, 0.3°E
Report Text: DAOV 301700Z 04011KT 9999 FEW020 23/01 Q1021
Loading
Personal Weather Stations






























Interactive Weather Map
Tropical Storm Tracking
New forecast layout! Learn more

10-Day Weather Forecast

Advertisements
Track Severe Weather on mobile